Time;durP1;ratioP1;P1;durP2;ratioP2;P2;SDS_P1;SDS_P2;PMS_P1;PMS_P2;Temp;Humidity;BMP_temperature;BMP_pressure;BME280_temperature;BME280_humidity;BME280_pressure;Samples;Min_cycle;Max_cycle;Signal;HPM_P1;HPM_P2
2022/01/19 00:01:34;;;;;;;5.40;2.70;;;;;;;22.55;27.68;102244.81;103340;1320;61597;-83
2022/01/19 00:04:23;;;;;;;4.40;2.60;;;;;;;22.55;27.56;102250.01;103278;1320;72956;-83
2022/01/19 00:07:02;;;;;;;;;;;;;;;;;;;;;
2022/01/19 00:09:48;;;;;;;5.60;2.50;;;;;;;22.55;27.79;102248.56;103189;1320;60865;-79
2022/01/19 00:12:23;;;;;;;4.30;2.60;;;;;;;22.56;27.88;102249.59;103360;1320;60581;-88
2022/01/19 00:15:05;;;;;;;5.20;2.40;;;;;;;22.56;27.81;102256.21;103934;1316;72905;-84
2022/01/19 00:17:58;;;;;;;5.00;2.70;;;;;;;22.56;27.51;102255.54;104058;1317;72676;-86
2022/01/19 00:20:48;;;;;;;5.20;2.70;;;;;;;22.56;27.73;102255.34;104063;1316;60506;-85
2022/01/19 00:23:36;;;;;;;4.80;2.70;;;;;;;22.56;27.81;102268.06;103737;1317;61531;-82
2022/01/19 00:26:18;;;;;;;;;;;;;;;;;;;;;
2022/01/19 00:28:59;;;;;;;5.40;2.60;;;;;;;22.57;27.87;102274.14;103831;1316;74119;-86
2022/01/19 00:31:31;;;;;;;4.90;2.60;;;;;;;22.56;27.77;102278.30;104161;1316;60531;-81
2022/01/19 00:34:22;;;;;;;4.40;2.50;;;;;;;22.57;27.78;102281.33;104358;1309;60694;-82
2022/01/19 00:37:10;;;;;;;4.00;2.30;;;;;;;22.57;27.86;102284.88;104408;1310;73845;-84
2022/01/19 00:39:45;;;;;;;4.20;2.70;;;;;;;22.57;27.80;102280.41;104496;1309;75395;-82
2022/01/19 00:42:35;;;;;;;;;;;;;;;;;;;;;
2022/01/19 00:45:13;;;;;;;4.10;2.40;;;;;;;22.56;27.64;102266.46;104445;1311;60877;-83
2022/01/19 00:47:40;;;;;;;5.70;2.60;;;;;;;22.56;27.67;102258.73;104448;1311;73287;-85
2022/01/19 00:50:29;;;;;;;5.20;2.70;;;;;;;22.57;27.69;102252.61;104359;1311;75090;-82
2022/01/19 00:53:23;;;;;;;4.20;2.40;;;;;;;22.56;27.86;102249.06;104523;1309;60522;-84
2022/01/19 00:55:52;;;;;;;4.60;2.50;;;;;;;22.56;27.78;102249.95;104440;1310;60577;-82
2022/01/19 00:58:32;;;;;;;4.90;2.70;;;;;;;22.57;27.80;102252.60;104392;1310;72919;-81
2022/01/19 01:01:17;;;;;;;4.30;2.50;;;;;;;22.56;27.80;102256.05;104500;1310;72848;-84
2022/01/19 01:03:52;;;;;;;4.70;2.20;;;;;;;22.56;27.80;102261.27;104502;1309;61069;-82
2022/01/19 01:06:26;;;;;;;6.00;2.60;;;;;;;22.56;27.86;102254.81;104508;1309;61677;-84
2022/01/19 01:09:16;;;;;;;4.60;2.90;;;;;;;22.56;27.78;102250.67;104434;1309;72666;-83
2022/01/19 01:12:01;;;;;;;4.30;2.50;;;;;;;22.57;27.83;102251.17;104464;1310;75041;-83
2022/01/19 01:21:19;;;;;;;;;;;;;;;;;;;;;
2022/01/19 01:24:14;;;;;;;4.50;2.50;;;;;;;22.56;27.95;102238.27;104444;1311;75078;-82
2022/01/19 01:26:53;;;;;;;4.50;2.90;;;;;;;22.57;27.69;102241.85;104358;1310;60595;-82
2022/01/19 01:29:50;;;;;;;5.10;2.60;;;;;;;22.57;27.83;102240.61;104487;1309;60539;-81
2022/01/19 01:32:32;;;;;;;4.60;2.70;;;;;;;22.56;27.94;102243.11;104308;1311;72631;-83
2022/01/19 01:35:19;;;;;;;6.60;2.80;;;;;;;22.56;27.70;102253.34;104416;1311;73719;-83
2022/01/19 01:37:54;;;;;;;4.40;2.50;;;;;;;22.56;27.75;102260.54;104485;1309;60399;-84
2022/01/19 01:40:50;;;;;;;4.50;2.50;;;;;;;22.57;27.69;102272.54;104422;1311;60532;-81
2022/01/19 01:43:41;;;;;;;4.90;2.90;;;;;;;22.56;27.88;102280.09;104401;1311;73842;-84
2022/01/19 01:46:46;;;;;;;4.70;2.50;;;;;;;22.56;27.80;102272.19;104483;1309;74099;-83
2022/01/19 01:55:49;;;;;;;5.30;2.60;;;;;;;22.55;27.63;102273.52;104001;1316;72972;-83
2022/01/19 01:58:36;;;;;;;4.20;2.50;;;;;;;22.56;27.90;102270.26;104057;1315;74826;-86
2022/01/19 02:01:33;;;;;;;6.80;3.10;;;;;;;22.55;27.67;102280.67;103612;1317;60520;-85
2022/01/19 02:04:29;;;;;;;5.40;2.90;;;;;;;22.56;27.68;102287.65;103871;1317;60503;-84
2022/01/19 02:10:32;;;;;;;6.70;3.20;;;;;;;22.55;27.93;102289.64;102728;1323;75031;-90
2022/01/19 02:22:46;;;;;;;5.50;3.30;;;;;;;22.55;28.03;102259.14;102110;1335;72729;-86
2022/01/19 02:25:37;;;;;;;5.70;3.10;;;;;;;22.55;27.87;102254.85;102268;1334;61590;-82
2022/01/19 02:41:02;;;;;;;6.70;3.60;;;;;;;22.55;28.03;102255.39;102619;1329;60754;-85
2022/01/19 02:43:45;;;;;;;5.10;3.10;;;;;;;22.55;27.92;102250.37;102755;1322;72753;-86
2022/01/19 02:49:28;;;;;;;6.30;3.30;;;;;;;22.56;27.79;102253.02;103104;1323;60903;-85
2022/01/19 02:52:23;;;;;;;6.80;3.30;;;;;;;22.56;27.86;102262.15;103059;1323;60655;-84
2022/01/19 02:55:12;;;;;;;9.20;3.20;;;;;;;22.55;27.82;102260.58;103048;1321;73696;-86
2022/01/19 02:58:09;;;;;;;5.50;3.00;;;;;;;22.55;27.94;102258.48;103975;1317;75502;-86
2022/01/19 03:10:41;;;;;;;5.30;3.30;;;;;;;22.55;27.93;102276.92;104209;1315;72747;-85
2022/01/19 03:13:21;;;;;;;5.20;2.70;;;;;;;22.55;27.74;102274.44;104214;1314;60607;-82
2022/01/19 03:15:56;;;;;;;5.40;3.10;;;;;;;22.55;27.96;102271.88;104176;1314;60558;-84
2022/01/19 03:18:42;;;;;;;4.90;2.80;;;;;;;22.55;27.82;102275.45;104081;1315;72857;-79
2022/01/19 03:21:33;;;;;;;;;;;;;;;;;;;;;
2022/01/19 03:24:37;;;;;;;5.50;3.10;;;;;;;22.52;27.79;102288.92;103471;1319;61753;-85
2022/01/19 03:27:32;;;;;;;5.50;3.10;;;;;;;22.53;27.77;102296.95;103392;1320;61581;-86
2022/01/19 03:30:20;;;;;;;6.00;3.10;;;;;;;22.53;27.75;102300.55;103368;1320;72951;-83
2022/01/19 03:32:55;;;;;;;6.30;3.00;;;;;;;22.54;28.02;102303.36;103437;1320;74123;-82
2022/01/19 03:35:51;;;;;;;;;;;;;;;;;;;;;
2022/01/19 03:38:28;;;;;;;5.90;3.30;;;;;;;22.54;27.82;102299.95;103363;1320;60553;-86
2022/01/19 03:41:17;;;;;;;5.00;3.10;;;;;;;22.55;27.81;102305.47;103584;1316;72890;-88
2022/01/19 03:43:43;;;;;;;5.30;3.10;;;;;;;22.55;27.98;102310.31;103602;1316;74115;-84
2022/01/19 03:46:57;;;;;;;5.00;3.00;;;;;;;22.55;27.71;102308.35;104011;1316;61542;-86
2022/01/19 03:49:34;;;;;;;7.00;3.10;;;;;;;22.54;27.95;102309.44;103904;1316;61482;-85
2022/01/19 03:52:12;;;;;;;6.00;2.80;;;;;;;22.55;27.85;102316.23;103869;1316;73102;-82
2022/01/19 03:54:58;;;;;;;5.00;2.80;;;;;;;22.55;27.85;102317.48;104035;1316;73931;-83
2022/01/19 03:57:44;;;;;;;5.10;2.70;;;;;;;22.55;27.74;102317.66;103885;1317;60462;-85
2022/01/19 04:00:53;;;;;;;;;;;;;;;;;;;;;
2022/01/19 04:06:52;;;;;;;5.00;2.80;;;;;;;22.56;27.83;102316.55;103957;1314;73957;-84
2022/01/19 04:10:03;;;;;;;4.40;2.80;;;;;;;22.55;27.74;102323.05;104049;1315;60633;-85
2022/01/19 04:12:55;;;;;;;5.70;2.90;;;;;;;22.55;27.88;102324.11;103318;1322;60810;-84
2022/01/19 04:15:53;;;;;;;4.60;2.60;;;;;;;22.55;27.87;102322.65;103313;1322;71804;-78
2022/01/19 04:18:55;;;;;;;4.90;2.90;;;;;;;22.55;27.75;102327.50;103125;1324;75005;-82
2022/01/19 04:21:35;;;;;;;4.80;2.90;;;;;;;22.56;27.86;102329.27;103364;1322;60670;-84
2022/01/19 04:24:11;;;;;;;6.10;2.50;;;;;;;22.56;27.75;102327.64;103341;1322;60668;-83
2022/01/19 04:26:49;;;;;;;;;;;;;;;;;;;;;
2022/01/19 04:29:58;;;;;;;4.80;2.70;;;;;;;22.56;27.79;102329.23;103162;1322;74154;-83
2022/01/19 04:33:00;;;;;;;4.70;2.80;;;;;;;22.57;27.77;102332.45;102769;1326;60552;-82
2022/01/19 04:35:55;;;;;;;5.10;2.90;;;;;;;22.57;27.84;102321.86;102722;1326;60539;-87
2022/01/19 04:45:01;;;;;;;5.30;2.80;;;;;;;22.56;27.90;102310.04;102700;1329;61353;-88
2022/01/19 05:06:39;;;;;;;8.20;3.20;;;;;;;22.57;27.93;102320.61;102287;1332;73915;-87
2022/01/19 05:09:49;;;;;;;;;;;;;;;;;;;;;
2022/01/19 05:15:42;;;;;;;8.20;3.00;;;;;;;22.56;27.74;102307.40;103723;1317;73316;-82
2022/01/19 05:18:13;;;;;;;6.10;3.20;;;;;;;22.56;27.74;102308.78;103808;1316;73735;-84
2022/01/19 05:21:09;;;;;;;10.50;3.30;;;;;;;22.57;27.68;102309.27;103854;1316;60545;-84
2022/01/19 05:23:35;;;;;;;9.20;3.20;;;;;;;22.56;27.77;102318.33;103619;1319;60410;-84
2022/01/19 05:26:24;;;;;;;6.60;3.50;;;;;;;22.54;27.58;102322.77;103798;1316;60507;-84
2022/01/19 05:29:00;;;;;;;7.80;3.70;;;;;;;22.50;27.42;102327.06;103666;1317;74236;-80
2022/01/19 05:31:49;;;;;;;9.20;4.00;;;;;;;22.48;27.27;102337.03;104162;1309;61256;-84
2022/01/19 05:34:18;;;;;;;8.60;3.80;;;;;;;22.47;26.98;102342.48;103751;1314;60311;-81
2022/01/19 05:36:43;;;;;;;10.90;5.20;;;;;;;22.44;26.87;102346.04;103752;1316;74318;-80
2022/01/19 05:39:14;;;;;;;9.70;6.20;;;;;;;22.39;26.60;102352.58;103525;1319;60505;-88
2022/01/19 05:41:43;;;;;;;15.20;6.90;;;;;;;22.35;26.48;102356.40;103417;1317;61359;-80
2022/01/19 05:44:09;;;;;;;15.90;8.40;;;;;;;22.28;26.15;102354.19;103727;1316;60536;-83
2022/01/19 05:46:55;;;;;;;17.40;8.90;;;;;;;22.21;26.08;102356.35;103611;1317;60490;-79
2022/01/19 05:49:20;;;;;;;15.30;8.10;;;;;;;22.14;25.72;102359.05;103277;1315;74598;-82
2022/01/19 05:51:55;;;;;;;19.30;8.80;;;;;;;22.07;25.55;102357.22;103231;1317;60984;-80
2022/01/19 05:54:20;;;;;;;18.60;7.90;;;;;;;22.01;25.24;102357.73;103337;1314;60963;-79
2022/01/19 05:56:46;;;;;;;20.20;9.70;;;;;;;21.96;25.15;102360.52;103470;1314;60490;-83
2022/01/19 05:59:17;;;;;;;19.20;9.40;;;;;;;21.89;24.79;102361.54;103180;1314;73784;-79
2022/01/19 06:01:43;;;;;;;22.70;10.10;;;;;;;21.82;24.40;102370.52;102996;1316;60703;-79
2022/01/19 06:04:08;;;;;;;24.50;10.60;;;;;;;21.77;24.35;102379.21;103091;1316;60492;-79
2022/01/19 06:06:34;;;;;;;25.70;12.50;;;;;;;21.72;24.41;102380.32;103292;1316;60471;-79
2022/01/19 06:09:02;;;;;;;22.30;11.50;;;;;;;21.68;24.18;102389.88;103173;1317;60603;-79
2022/01/19 06:11:27;;;;;;;18.20;9.80;;;;;;;21.64;23.96;102383.98;103358;1309;60598;-79
2022/01/19 06:13:53;;;;;;;21.20;9.20;;;;;;;21.62;23.76;102383.86;103820;1309;60577;-80
2022/01/19 06:16:19;;;;;;;19.80;9.20;;;;;;;21.64;23.88;102382.36;103664;1309;60590;-80
2022/01/19 06:18:44;;;;;;;20.60;9.30;;;;;;;21.67;23.95;102384.55;103909;1309;60504;-79
2022/01/19 06:21:10;;;;;;;20.20;8.80;;;;;;;21.70;23.75;102381.15;103817;1308;73179;-79
2022/01/19 06:23:37;;;;;;;18.90;9.50;;;;;;;21.73;23.83;102382.27;103827;1309;60491;-79
2022/01/19 06:26:05;;;;;;;17.30;8.50;;;;;;;21.76;23.90;102381.73;103719;1309;60617;-79
2022/01/19 06:28:31;;;;;;;18.80;8.60;;;;;;;21.81;23.83;102382.06;103715;1309;74126;-78
2022/01/19 06:30:58;;;;;;;19.00;8.80;;;;;;;21.84;23.89;102386.39;103649;1308;60551;-79
2022/01/19 06:33:24;;;;;;;18.00;7.90;;;;;;;21.89;24.01;102393.67;103641;1309;61432;-79
2022/01/19 06:35:53;;;;;;;16.20;7.80;;;;;;;21.93;23.95;102401.72;103736;1308;60373;-80
2022/01/19 06:38:21;;;;;;;15.80;7.10;;;;;;;21.98;24.13;102405.78;104356;1309;73617;-79
2022/01/19 06:40:46;;;;;;;14.80;7.10;;;;;;;22.01;24.13;102418.48;104299;1308;74067;-79
2022/01/19 06:43:13;;;;;;;14.80;7.20;;;;;;;22.05;24.29;102419.92;103818;1308;60605;-79
2022/01/19 06:45:41;;;;;;;13.30;7.20;;;;;;;22.08;24.20;102423.88;103703;1309;60468;-80
2022/01/19 06:48:06;;;;;;;18.90;7.10;;;;;;;22.12;24.34;102418.49;103732;1309;74279;-79
2022/01/19 06:50:33;;;;;;;12.40;7.00;;;;;;;22.15;24.52;102412.95;103720;1309;60574;-78
2022/01/19 06:52:58;;;;;;;19.60;7.40;;;;;;;22.18;24.50;102405.30;103651;1309;60365;-78
2022/01/19 06:55:24;;;;;;;19.00;7.00;;;;;;;22.22;24.74;102408.16;103546;1308;60587;-79
2022/01/19 06:57:50;;;;;;;27.60;7.90;;;;;;;22.22;24.67;102407.80;103502;1309;60485;-80
2022/01/19 07:00:16;;;;;;;30.20;9.00;;;;;;;22.19;24.76;102410.99;103540;1310;60486;-78
2022/01/19 07:02:41;;;;;;;18.80;8.70;;;;;;;22.10;24.89;102418.43;103993;1308;75133;-80
2022/01/19 07:05:07;;;;;;;21.60;8.00;;;;;;;22.03;24.91;102416.62;103551;1308;60421;-79
2022/01/19 07:07:36;;;;;;;17.20;8.00;;;;;;;22.02;25.08;102416.13;103606;1310;60604;-81
2022/01/19 07:10:04;;;;;;;33.20;8.90;;;;;;;22.02;25.16;102414.69;103573;1310;71839;-78
2022/01/19 07:12:31;;;;;;;22.10;8.30;;;;;;;22.01;25.23;102412.42;105156;1308;75099;-78
2022/01/19 07:14:57;;;;;;;20.50;8.10;;;;;;;22.01;25.10;102406.32;105138;1308;58963;-78
2022/01/19 07:17:22;;;;;;;18.90;8.50;;;;;;;22.03;25.23;102405.69;104946;1308;58749;-78
2022/01/19 07:19:48;;;;;;;16.90;7.70;;;;;;;22.05;25.17;102403.77;104949;1308;59331;-78
2022/01/19 07:22:16;;;;;;;19.70;7.00;;;;;;;22.09;25.21;102399.10;103659;1308;60495;-79
2022/01/19 07:24:42;;;;;;;18.30;7.50;;;;;;;22.12;25.08;102400.08;103562;1310;60521;-79
2022/01/19 07:27:08;;;;;;;19.50;7.90;;;;;;;22.15;25.03;102398.46;103523;1309;60496;-79
2022/01/19 07:29:33;;;;;;;16.60;8.50;;;;;;;22.17;25.14;102398.16;103810;1308;60495;-78
2022/01/19 07:31:59;;;;;;;17.30;7.80;;;;;;;22.18;24.94;102401.86;103605;1309;60399;-80
2022/01/19 07:34:25;;;;;;;26.70;9.10;;;;;;;22.20;25.11;102402.34;105188;1309;58614;-78
2022/01/19 07:36:53;;;;;;;19.40;8.50;;;;;;;22.22;25.31;102401.66;104212;1309;60487;-78
2022/01/19 07:39:23;;;;;;;14.70;7.40;;;;;;;22.25;25.39;102402.96;103809;1311;63190;-78
2022/01/19 07:41:49;;;;;;;18.20;8.60;;;;;;;22.26;25.31;102397.32;103809;1310;73778;-78
2022/01/19 07:44:15;;;;;;;20.20;8.40;;;;;;;22.27;25.28;102394.77;103643;1311;60543;-79
2022/01/19 07:46:43;;;;;;;16.80;8.90;;;;;;;22.27;25.12;102394.81;103796;1309;60845;-79
2022/01/19 07:49:17;;;;;;;17.00;8.70;;;;;;;22.24;25.19;102402.30;103891;1308;62497;-78
2022/01/19 07:52:07;;;;;;;15.50;8.00;;;;;;;22.21;25.07;102407.48;103767;1309;74084;-77
2022/01/19 07:54:32;;;;;;;16.80;8.30;;;;;;;22.12;25.16;102414.59;102999;1316;73875;-78
2022/01/19 07:56:58;;;;;;;17.70;7.80;;;;;;;21.96;24.84;102421.83;102996;1316;60658;-78
2022/01/19 07:59:24;;;;;;;16.90;7.30;;;;;;;21.81;24.80;102421.12;103003;1317;60691;-84
2022/01/19 08:01:49;;;;;;;19.00;7.90;;;;;;;21.76;25.01;102422.63;102901;1316;60484;-81
2022/01/19 08:04:15;;;;;;;17.00;7.70;;;;;;;21.74;25.20;102421.23;102656;1317;60837;-79
2022/01/19 08:06:42;;;;;;;19.20;7.60;;;;;;;21.72;25.19;102418.52;103093;1316;60667;-79
2022/01/19 08:09:08;;;;;;;17.30;7.40;;;;;;;21.71;25.13;102416.77;102852;1317;60697;-79
2022/01/19 08:11:34;;;;;;;18.50;7.60;;;;;;;21.73;25.14;102415.21;103133;1316;60517;-79
2022/01/19 08:13:59;;;;;;;21.10;7.40;;;;;;;21.76;25.02;102417.39;103109;1317;60419;-79
2022/01/19 08:16:25;;;;;;;17.70;7.50;;;;;;;21.81;24.90;102415.39;102988;1317;60546;-79
2022/01/19 08:18:54;;;;;;;15.50;7.10;;;;;;;21.84;24.89;102417.02;103053;1317;60560;-78
2022/01/19 08:21:45;;;;;;;16.10;7.00;;;;;;;21.88;24.76;102417.71;103132;1317;60528;-78
2022/01/19 08:24:11;;;;;;;16.50;7.00;;;;;;;21.92;24.61;102418.39;102489;1320;73740;-78
2022/01/19 08:26:36;;;;;;;15.60;6.60;;;;;;;21.97;24.75;102417.84;102538;1320;61693;-79
2022/01/19 08:29:02;;;;;;;18.10;6.80;;;;;;;22.00;24.87;102417.64;102516;1320;62348;-78
2022/01/19 08:31:28;;;;;;;15.10;6.20;;;;;;;22.05;24.91;102417.97;102601;1316;60664;-79
2022/01/19 08:33:53;;;;;;;16.10;6.10;;;;;;;22.08;25.08;102417.61;103159;1316;60488;-80
2022/01/19 08:36:21;;;;;;;17.60;6.60;;;;;;;22.12;24.98;102409.34;102967;1316;72240;-78
2022/01/19 08:38:47;;;;;;;11.80;6.40;;;;;;;22.16;25.25;102412.00;102883;1316;74763;-79
2022/01/19 08:41:13;;;;;;;13.00;6.00;;;;;;;22.19;25.30;102417.05;103091;1317;59798;-78
2022/01/19 08:43:39;;;;;;;20.20;6.00;;;;;;;22.23;25.30;102419.20;102884;1317;60627;-77
2022/01/19 08:46:05;;;;;;;18.00;5.90;;;;;;;22.25;25.47;102418.05;103034;1317;62327;-79
2022/01/19 08:48:30;;;;;;;17.30;6.30;;;;;;;22.27;25.63;102417.36;103111;1317;60477;-79
2022/01/19 08:50:56;;;;;;;12.50;5.60;;;;;;;22.29;25.80;102415.11;102874;1317;60794;-78
2022/01/19 08:53:22;;;;;;;14.70;5.70;;;;;;;22.31;25.81;102414.15;102737;1317;60550;-79
2022/01/19 08:55:48;;;;;;;15.30;5.70;;;;;;;22.28;25.97;102413.77;102668;1317;60540;-79
2022/01/19 08:58:14;;;;;;;16.00;5.50;;;;;;;22.20;25.91;102409.65;102795;1316;73714;-78
2022/01/19 09:00:44;;;;;;;20.20;5.90;;;;;;;22.13;25.94;102409.33;102925;1309;60515;-80
2022/01/19 09:03:10;;;;;;;16.60;5.50;;;;;;;22.06;25.95;102412.54;103278;1309;60539;-79
2022/01/19 09:05:36;;;;;;;13.20;5.40;;;;;;;21.92;26.09;102414.98;104991;1308;58800;-79
2022/01/19 09:08:03;;;;;;;14.00;5.80;;;;;;;21.86;26.25;102417.48;104850;1309;60199;-78
2022/01/19 09:10:29;;;;;;;13.80;5.70;;;;;;;21.82;26.30;102417.85;105003;1309;59488;-80
2022/01/19 09:12:59;;;;;;;14.60;5.10;;;;;;;21.80;26.24;102418.63;105110;1308;58759;-78
2022/01/19 09:15:25;;;;;;;9.60;5.40;;;;;;;21.81;26.14;102415.37;105049;1308;60238;-79
2022/01/19 09:17:52;;;;;;;14.20;5.00;;;;;;;21.83;25.91;102410.62;105024;1308;58666;-80
2022/01/19 09:20:18;;;;;;;8.80;4.90;;;;;;;21.83;25.79;102407.55;104991;1309;60049;-78
2022/01/19 09:22:44;;;;;;;12.70;5.00;;;;;;;21.83;25.79;102403.10;105016;1308;58590;-79
2022/01/19 09:25:09;;;;;;;8.60;4.50;;;;;;;21.85;25.55;102409.11;105318;1302;59732;-79
2022/01/19 09:27:37;;;;;;;11.40;4.90;;;;;;;21.84;25.39;102406.05;105034;1302;59301;-79
2022/01/19 09:30:07;;;;;;;8.90;4.90;;;;;;;21.83;25.48;102407.55;103751;1305;60575;-79
2022/01/19 09:32:32;;;;;;;9.20;4.70;;;;;;;21.81;25.48;102406.07;105218;1305;60368;-79
2022/01/19 09:35:26;;;;;;;15.50;4.80;;;;;;;21.81;25.24;102406.80;105451;1302;58817;-79
2022/01/19 09:37:52;;;;;;;8.30;5.00;;;;;;;21.81;25.13;102392.96;104945;1310;72681;-79
2022/01/19 09:40:17;;;;;;;10.70;4.90;;;;;;;21.85;25.16;102381.16;104934;1310;58711;-80
2022/01/19 09:42:45;;;;;;;12.10;4.90;;;;;;;21.86;24.92;102381.95;104001;1311;59897;-79
2022/01/19 09:45:10;;;;;;;9.90;4.70;;;;;;;21.92;25.04;102376.66;103383;1311;60612;-78
2022/01/19 09:47:36;;;;;;;11.00;4.60;;;;;;;21.93;24.93;102373.36;103533;1309;61139;-78
2022/01/19 09:50:03;;;;;;;10.00;4.50;;;;;;;21.94;24.91;102368.50;103535;1311;60549;-82
2022/01/19 09:52:29;;;;;;;10.00;5.10;;;;;;;21.94;24.76;102367.05;103255;1311;60615;-79
2022/01/19 09:54:55;;;;;;;16.30;4.90;;;;;;;21.86;24.49;102360.62;103003;1311;60963;-78
2022/01/19 09:57:22;;;;;;;12.90;4.60;;;;;;;21.77;24.48;102359.31;103253;1311;61615;-77
2022/01/19 09:59:48;;;;;;;14.80;5.30;;;;;;;21.60;24.32;102354.20;103179;1311;60524;-78
2022/01/19 10:02:15;;;;;;;16.20;5.40;;;;;;;21.47;24.27;102353.20;103137;1311;60586;-79
2022/01/19 10:04:42;;;;;;;17.80;5.00;;;;;;;21.38;24.43;102344.15;103157;1311;60783;-79
2022/01/19 10:07:28;;;;;;;12.10;4.80;;;;;;;21.29;24.16;102343.30;104558;1311;58978;-79
2022/01/19 10:09:56;;;;;;;11.60;4.70;;;;;;;21.27;24.33;102328.01;104739;1310;75031;-79
2022/01/19 10:18:33;;;;;;;11.10;4.60;;;;;;;21.16;24.36;102318.54;105353;1302;72844;-79
2022/01/19 10:21:13;;;;;;;11.50;4.70;;;;;;;21.15;24.36;102313.52;105343;1304;73913;-79
2022/01/19 10:23:41;;;;;;;12.50;4.30;;;;;;;21.15;24.39;102308.34;105165;1305;61557;-79
2022/01/19 10:26:11;;;;;;;12.20;4.50;;;;;;;21.17;24.51;102299.11;105486;1301;60300;-79
2022/01/19 10:28:56;;;;;;;16.10;4.60;;;;;;;21.17;24.57;102297.86;105175;1305;73814;-79
2022/01/19 10:31:22;;;;;;;13.50;4.60;;;;;;;21.18;24.57;102299.64;105148;1302;73971;-80
2022/01/19 10:34:16;;;;;;;12.50;4.50;;;;;;;21.20;24.65;102294.86;105219;1302;58912;-79
2022/01/19 10:36:47;;;;;;;13.00;5.10;;;;;;;21.25;24.88;102288.73;105503;1302;60664;-79
2022/01/19 10:39:13;;;;;;;12.40;4.50;;;;;;;21.29;24.95;102281.22;105311;1302;73199;-80
2022/01/19 10:41:57;;;;;;;12.10;4.40;;;;;;;21.27;24.89;102275.36;105553;1302;59165;-79
2022/01/19 10:44:34;;;;;;;9.50;3.90;;;;;;;21.23;24.88;102272.00;105390;1303;61689;-79
2022/01/19 10:47:00;;;;;;;7.40;3.90;;;;;;;21.19;24.72;102270.21;105482;1302;62930;-79
2022/01/19 10:49:26;;;;;;;13.80;4.40;;;;;;;21.19;24.65;102272.73;105296;1302;58727;-79
2022/01/19 10:51:57;;;;;;;9.60;3.70;;;;;;;21.24;25.34;102266.20;103826;1303;60521;-80
2022/01/19 10:54:26;;;;;;;6.10;3.70;;;;;;;21.24;25.22;102255.10;105263;1302;59786;-79
2022/01/19 10:56:57;;;;;;;11.90;4.00;;;;;;;21.21;24.81;102249.54;105340;1302;60366;-79
2022/01/19 10:59:28;;;;;;;9.20;4.00;;;;;;;21.17;24.97;102244.73;105373;1302;73346;-79
2022/01/19 11:01:57;;;;;;;9.80;4.00;;;;;;;21.15;24.98;102241.95;105321;1302;74004;-79
2022/01/19 11:04:30;;;;;;;10.10;3.70;;;;;;;21.15;25.02;102242.83;105644;1301;60590;-79
2022/01/19 11:06:58;;;;;;;10.00;3.90;;;;;;;21.13;24.78;102242.77;105574;1301;61549;-80
2022/01/19 11:09:26;;;;;;;10.20;4.10;;;;;;;21.11;24.65;102238.37;105542;1302;73945;-79
2022/01/19 11:11:54;;;;;;;7.70;3.90;;;;;;;21.09;24.41;102233.63;105306;1302;74779;-79
2022/01/19 11:14:20;;;;;;;10.00;4.40;;;;;;;21.09;24.31;102233.65;105307;1303;60390;-79
2022/01/19 11:16:47;;;;;;;9.00;4.10;;;;;;;21.11;24.08;102231.95;105416;1304;58721;-79
2022/01/19 11:19:13;;;;;;;11.40;4.00;;;;;;;21.15;23.90;102229.23;105207;1305;74180;-78
2022/01/19 11:22:17;;;;;;;15.00;4.10;;;;;;;21.21;24.01;102222.14;105480;1302;58747;-79
2022/01/19 11:25:01;;;;;;;10.50;3.60;;;;;;;21.28;23.86;102216.61;105674;1302;60421;-79
2022/01/19 11:27:29;;;;;;;12.00;3.70;;;;;;;21.35;24.05;102208.39;104820;1302;60513;-80
2022/01/19 11:30:34;;;;;;;9.10;4.20;;;;;;;21.39;24.09;102205.85;104127;1302;73720;-79
2022/01/19 11:33:26;;;;;;;10.20;4.00;;;;;;;21.37;24.08;102199.51;104029;1308;74060;-79
2022/01/19 11:36:04;;;;;;;8.20;3.70;;;;;;;21.33;23.81;102189.64;103638;1308;60658;-79
2022/01/19 11:38:41;;;;;;;11.40;3.90;;;;;;;21.31;24.12;102188.66;105159;1308;60454;-79
2022/01/19 11:41:07;;;;;;;14.50;3.80;;;;;;;21.29;24.30;102186.80;105056;1308;72757;-79
2022/01/19 11:43:33;;;;;;;10.50;3.80;;;;;;;21.25;24.26;102190.23;104934;1307;58987;-79
2022/01/19 11:45:59;;;;;;;11.10;4.10;;;;;;;21.20;24.08;102182.44;104674;1309;58704;-80
2022/01/19 11:48:27;;;;;;;9.40;3.70;;;;;;;21.14;24.10;102177.71;104821;1310;58591;-78
2022/01/19 11:50:54;;;;;;;7.40;4.10;;;;;;;21.07;23.93;102174.46;104831;1308;72810;-78
2022/01/19 11:53:20;;;;;;;11.10;3.70;;;;;;;21.05;23.64;102166.52;104699;1308;72848;-78
2022/01/19 11:56:08;;;;;;;9.20;3.50;;;;;;;21.01;23.50;102168.14;105031;1308;58923;-79
2022/01/19 11:58:34;;;;;;;7.60;3.60;;;;;;;21.02;23.58;102164.91;104987;1308;60582;-78
2022/01/19 12:00:59;;;;;;;7.90;3.50;;;;;;;21.04;23.66;102163.38;104948;1308;58932;-79
2022/01/19 12:03:30;;;;;;;8.40;3.50;;;;;;;21.05;23.66;102162.42;105130;1302;59603;-79
2022/01/19 12:05:55;;;;;;;6.80;3.60;;;;;;;21.03;23.66;102152.31;105313;1302;60336;-78
2022/01/19 12:08:32;;;;;;;8.70;3.50;;;;;;;21.02;23.42;102147.88;105479;1302;59294;-78
2022/01/19 12:11:01;;;;;;;7.70;3.70;;;;;;;21.01;23.48;102140.97;105448;1302;72711;-78
2022/01/19 12:13:58;;;;;;;6.70;3.20;;;;;;;21.00;23.44;102132.95;105035;1303;73767;-79
2022/01/19 12:19:28;;;;;;;10.30;3.50;;;;;;;20.97;23.17;102121.84;102581;1319;60621;-79
2022/01/19 12:22:12;;;;;;;6.10;3.60;;;;;;;20.96;23.22;102117.77;103271;1317;74174;-82
2022/01/19 12:24:54;;;;;;;12.50;3.80;;;;;;;20.95;23.26;102119.05;102778;1317;74972;-79
2022/01/19 12:27:43;;;;;;;7.40;3.50;;;;;;;20.95;23.37;102118.36;103314;1319;61558;-81
2022/01/19 12:30:15;;;;;;;9.60;4.20;;;;;;;20.93;23.39;102120.39;102390;1322;60596;-82
2022/01/19 12:33:03;;;;;;;10.30;3.80;;;;;;;20.92;23.43;102120.61;102138;1325;73018;-80
2022/01/19 12:35:36;;;;;;;7.00;3.50;;;;;;;20.92;23.52;102124.01;101865;1331;74479;-78
2022/01/19 12:38:04;;;;;;;11.50;3.70;;;;;;;20.94;23.60;102124.66;101772;1331;60569;-79
2022/01/19 12:40:35;;;;;;;8.90;3.70;;;;;;;20.95;23.73;102120.31;101841;1331;60735;-78
2022/01/19 12:43:08;;;;;;;9.00;3.60;;;;;;;20.95;23.85;102128.89;102287;1331;74461;-80
2022/01/19 12:45:49;;;;;;;11.30;3.60;;;;;;;20.93;23.81;102129.16;102165;1330;74179;-80
2022/01/19 12:48:35;;;;;;;14.60;4.10;;;;;;;20.90;23.64;102123.05;102075;1331;60343;-79
2022/01/19 12:51:01;;;;;;;12.10;3.90;;;;;;;20.84;23.42;102114.97;101824;1331;61549;-79
2022/01/19 12:53:26;;;;;;;11.90;4.00;;;;;;;20.81;23.34;102111.16;102078;1324;59793;-80
2022/01/19 12:55:56;;;;;;;12.30;3.40;;;;;;;20.80;23.39;102113.17;102709;1319;60632;-79
2022/01/19 12:58:26;;;;;;;11.40;4.40;;;;;;;20.78;23.43;102108.10;102984;1319;60487;-79
2022/01/19 13:00:58;;;;;;;9.80;4.10;;;;;;;20.76;23.50;102100.84;103004;1319;61394;-78
2022/01/19 13:03:26;;;;;;;10.40;3.50;;;;;;;20.76;23.69;102097.45;103995;1319;73145;-79
2022/01/19 13:05:53;;;;;;;10.40;3.70;;;;;;;20.85;24.15;102098.10;104053;1319;73881;-79
2022/01/19 13:08:24;;;;;;;22.30;4.30;;;;;;;20.93;24.54;102094.64;104504;1311;60635;-78
2022/01/19 13:10:52;;;;;;;14.20;4.10;;;;;;;21.00;24.78;102093.96;104936;1311;61326;-78
2022/01/19 13:13:26;;;;;;;9.60;4.40;;;;;;;21.03;24.81;102093.77;105219;1305;72628;-78
2022/01/19 13:15:54;;;;;;;7.60;3.30;;;;;;;21.08;24.72;102087.09;105550;1302;74945;-78
2022/01/19 13:18:53;;;;;;;8.90;3.70;;;;;;;21.13;24.81;102076.61;104287;1303;60481;-78
2022/01/19 13:21:23;;;;;;;7.70;3.70;;;;;;;21.19;24.45;102071.84;104067;1311;60598;-79
2022/01/19 13:24:04;;;;;;;9.00;3.70;;;;;;;21.24;24.47;102071.73;105152;1309;71805;-79
2022/01/19 13:26:37;;;;;;;8.20;3.60;;;;;;;21.30;24.42;102072.00;104446;1312;73836;-79
2022/01/19 13:29:22;;;;;;;10.50;3.90;;;;;;;21.35;24.49;102059.23;104038;1311;60537;-80
2022/01/19 13:32:00;;;;;;;7.40;3.90;;;;;;;21.39;24.39;102052.54;104096;1311;61700;-80
2022/01/19 13:35:16;;;;;;;8.30;4.10;;;;;;;21.43;24.66;102048.73;104145;1311;73583;-81